Aeroporto :
LOGIN :

Iscrizione | Disclaimer

   EN    FR    IT 

 










Sommario :    VFR   VFR Marginale   IFR   IFR Intensivo   IFR Molto Intensivo
Visibilità : 
Base nubi : 
>= 8 km
>= 3000ft
5 / 8 km
1000 / 3000 ft
1500m / 5 km
500 / 1000 ft
800 / 1500m
200 / 500 ft
< 800m
< 200 ft
Simboli :   Temporali  Nebbia  Neve Forte  Precipitazioni Forti  Vento > 20 kt
SIGMETs :   Varie  Temporali  Ghiacco  Turbolenza  Onda orograficha  Ceneri Vulcaniche






- Altitudine del aeroporto : 584 ft


LFPV - Villacoublay Vélizy

ULTIMO METAR :
  • 240900Z AUTO 14006KT 0250 0200 R27/0450U R09/0300N FG VV/// 05/05 Q1023 BECMG 8000 NSW

METARs OBSOLETI :
  • 240830Z AUTO 14006KT 0200 R27/M0200N R09/M0200U FG VV/// 05/04 Q1023 BECMG 8000 NSW
  • 240800Z AUTO 15004KT 0200 0150 R27/M0200D R09/M0200N FG VV/// 05/04 Q1023 BECMG 8000 NSW NSC
  • 240730Z AUTO 15003KT 0250 0200 R27/0250N R09/0250N FG VV/// 04/04 Q1023 BECMG 8000 NSW NSC
  • 240700Z AUTO 14003KT 110V170 0300 0250 R27/0325N R09/0250N -RA FG VV/// 05/05 Q1023 BECMG 8000 NSW NSC
  • 240630Z AUTO 12005KT 1600 0500 R27/0700D R09/0700N BCFG VV/// 05/05 Q1023 BECMG 8000 NSW NSC

TAF AMD TAF LFPV
Valido dal 24 a 08 ore il 25 a 09 ore UTC


240846Z 2408/2509 15005KT 0200 FG VV/// TX09/2414Z TN03/2502Z
BECMG 2410/2411 3000 BR
BECMG 2411/2412 8000 NSW
BECMG 2503/2505 BKN012
TEMPO 2506/2508 BKN006



MetMap, La meteo Aeronautica in un colpo d'occhio ! - Copyright ORBIFLY Dicembre 2007 - Disclaimer

ORBIFLY MET'MAP TEAM :

Programmazione e sviluppo : Alexandra Zaïnal
Concezione : Baudouin d'Aumeries
Aiuto per la programmazione : Marc-Olivier Méhu
Supporto tecnico e logistico : Manuel Goepfert
Aiuto per la traduzione : Arnaldo La Scala

Contatto : metmap@orbifly.com




FONTI E CREDITI :

   NOAA